CheckWX is a tool to help pilots better visualize weather data.  It is not intended as a substitute for an official pre-flight weather briefing.

16:42:12 UTC

LLHA TAF
Haifa International Airport
Haifa, Israel
TAF LLHA 081704Z 0818/0918 32006KT 9999 SCT025 TEMPO 0900/0905 VRB04KT BKN020 BECMG 0905/0907 30010KT TX30/0910Z TN26/0902Z

Jul-8@
18:00 UTC

Jul-8 @ 18:00 UTC

Jul-9@
05:00 UTC

Jul-9 @ 05:00 UTC

TAF LLHA 081704Z 0818/0918 32006KT 9999 SCT025

Expired

Wind
  • 320° at 6 KTS
Cloud Levels
  • Scattered at 2,500' AGL

Jul-9@
00:00 UTC

Jul-9 @ 00:00 UTC

Jul-9@
05:00 UTC

Jul-9 @ 05:00 UTC

TEMPO 0900/0905 VRB04KT BKN020

Expired

Wind
  • Variable at 4 KTS
Cloud Levels
  • Broken at 2,000' AGL

Jul-9@
05:00 UTC

Jul-9 @ 05:00 UTC

Jul-9@
18:00 UTC

Jul-9 @ 18:00 UTC

BECMG 0905/0907 30010KT TX30/0910Z TN26/0902Z

Becoming

Becoming Conditions expected by Thu, Jul 9, 2020 @ 07:00 UTC

Wind
  • 300° at 10 KTS
Cloud Levels
  • Scattered at 2,500' AGL